createdAt,value
2023-03-03T00:04:07.681Z,2.58
2023-03-03T00:06:35.980Z,2.13
2023-03-03T00:11:36.281Z,2.10
2023-03-03T00:16:37.919Z,2.63
2023-03-03T00:19:17.886Z,2.03
2023-03-03T00:21:51.791Z,2.10
2023-03-03T00:24:23.328Z,2.35
2023-03-03T00:26:55.541Z,1.80
2023-03-03T00:29:41.161Z,2.40
2023-03-03T00:32:23.326Z,2.33
2023-03-03T00:34:53.532Z,2.70
2023-03-03T00:37:27.424Z,2.35
2023-03-03T00:40:03.304Z,2.38
2023-03-03T00:42:36.032Z,2.08
2023-03-03T00:45:24.730Z,2.45
2023-03-03T00:47:53.090Z,2.83
2023-03-03T00:53:18.258Z,1.83
2023-03-03T00:55:49.461Z,2.10
2023-03-03T00:58:19.223Z,2.30
2023-03-03T01:00:52.291Z,2.53
2023-03-03T01:15:29.142Z,1.77
2023-03-03T01:17:57.524Z,2.15
2023-03-03T01:22:53.897Z,1.70
2023-03-03T01:25:22.460Z,1.50
2023-03-03T01:53:05.571Z,1.97
2023-03-03T01:55:38.151Z,2.35
2023-03-03T01:58:15.625Z,1.88
2023-03-03T02:00:47.001Z,2.07
2023-03-03T02:03:16.092Z,1.70
2023-03-03T02:05:44.695Z,2.38
2023-03-03T02:08:17.305Z,2.35
2023-03-03T02:10:47.304Z,2.50
2023-03-03T02:13:15.701Z,2.20
2023-03-03T02:15:44.110Z,2.72
2023-03-03T02:20:49.998Z,2.05
2023-03-03T02:23:44.523Z,2.05
2023-03-03T02:26:24.627Z,2.33
2023-03-03T02:28:58.586Z,1.90
2023-03-03T02:31:29.393Z,2.45
2023-03-03T02:33:58.203Z,2.83
2023-03-03T02:36:36.075Z,2.28
2023-03-03T02:39:09.591Z,1.70
2023-03-03T02:42:02.294Z,2.10
2023-03-03T02:44:37.655Z,2.13
2023-03-03T02:52:07.913Z,1.75
2023-03-03T02:54:36.848Z,2.13
2023-03-03T02:57:06.030Z,1.98
2023-03-03T02:59:34.499Z,1.95
2023-03-03T03:02:10.194Z,1.58
2023-03-03T03:07:06.815Z,1.50
2023-03-03T03:09:37.695Z,1.92
2023-03-03T03:14:36.167Z,1.95
2023-03-03T03:17:06.354Z,2.03
2023-03-03T03:22:04.134Z,1.83
2023-03-03T03:24:35.510Z,1.67
2023-03-03T03:27:07.700Z,1.85
2023-03-03T03:29:36.244Z,1.17
2023-03-03T03:32:05.822Z,1.92
2023-03-03T03:34:34.364Z,1.95
2023-03-03T03:37:02.922Z,1.73
2023-03-03T03:41:59.209Z,1.90
2023-03-03T03:46:56.050Z,1.67
2023-03-03T03:51:54.696Z,1.40
2023-03-03T03:54:26.253Z,1.45
2023-03-03T03:56:54.752Z,1.85
2023-03-03T03:59:24.065Z,1.20
2023-03-03T04:01:53.117Z,1.63
2023-03-03T04:04:22.750Z,1.38
2023-03-03T04:06:51.818Z,1.67
2023-03-03T04:09:20.468Z,1.73
2023-03-03T04:11:49.298Z,1.75
2023-03-03T04:14:18.870Z,1.50
2023-03-03T04:16:47.455Z,1.67
2023-03-03T04:21:44.459Z,0.90
2023-03-03T04:26:41.256Z,1.35
2023-03-03T04:29:12.370Z,1.23
2023-03-03T04:31:42.897Z,0.98
2023-03-03T04:34:11.931Z,1.98
2023-03-03T04:36:40.665Z,2.00
2023-03-03T04:39:09.524Z,1.67
2023-03-03T04:44:05.707Z,2.28
2023-03-03T04:46:34.333Z,2.50
2023-03-03T04:49:03.180Z,1.98
2023-03-03T04:53:59.887Z,1.73
2023-03-03T04:56:28.153Z,2.38
2023-03-03T04:58:56.452Z,1.75
2023-03-03T05:03:53.080Z,2.22
2023-03-03T05:06:21.506Z,2.70
2023-03-03T05:11:17.723Z,1.95
2023-03-03T05:13:46.043Z,2.70
2023-03-03T05:21:10.441Z,2.30
2023-03-03T05:26:06.712Z,1.90
2023-03-03T05:28:35.115Z,2.55
2023-03-03T05:33:31.498Z,2.40
2023-03-03T05:38:27.825Z,1.75
2023-03-03T05:43:23.966Z,2.03
2023-03-03T05:45:58.977Z,1.98
2023-03-03T05:48:27.548Z,2.10
2023-03-03T05:50:58.532Z,1.92
2023-03-03T05:53:28.221Z,1.75
2023-03-03T05:55:56.466Z,2.40
2023-03-03T06:03:21.154Z,1.48
2023-03-03T06:05:49.696Z,1.77
2023-03-03T06:08:18.002Z,1.80
2023-03-03T06:13:17.120Z,1.33
2023-03-03T06:15:45.424Z,2.20
2023-03-03T06:23:09.889Z,1.63
2023-03-03T06:28:07.833Z,2.35
2023-03-03T06:30:36.132Z,1.90
2023-03-03T06:35:32.660Z,1.75
2023-03-03T06:38:00.922Z,2.25
2023-03-03T06:40:29.228Z,1.67
2023-03-03T06:42:57.526Z,1.70
2023-03-03T06:45:25.946Z,1.77
2023-03-03T06:47:54.242Z,1.55
2023-03-03T06:50:23.747Z,1.80
2023-03-03T06:53:15.461Z,1.60
2023-03-03T06:55:43.957Z,1.65
2023-03-03T06:58:18.321Z,2.00
2023-03-03T07:00:59.580Z,1.85
2023-03-03T07:03:37.759Z,2.15
2023-03-03T07:08:43.785Z,1.30
2023-03-03T07:11:17.699Z,1.33
2023-03-03T07:13:49.434Z,1.83
2023-03-03T07:16:19.193Z,1.83
2023-03-03T07:18:54.522Z,1.95
2023-03-03T07:21:26.440Z,1.83
2023-03-03T07:23:54.970Z,1.60
2023-03-03T07:28:58.758Z,2.00
2023-03-03T07:31:32.303Z,1.95
2023-03-03T07:34:01.663Z,1.40
2023-03-03T07:36:38.096Z,1.52
2023-03-03T07:39:23.458Z,2.10
2023-03-03T07:41:51.828Z,2.28
2023-03-03T07:46:50.544Z,1.50
2023-03-03T07:51:56.527Z,1.40
2023-03-03T07:54:38.870Z,1.95
2023-03-03T07:57:19.460Z,1.60
2023-03-03T07:59:54.126Z,1.83
2023-03-03T08:02:40.720Z,2.30
2023-03-03T08:05:39.269Z,1.77
2023-03-03T08:08:10.765Z,1.80
2023-03-03T08:10:43.344Z,1.73
2023-03-03T08:13:33.798Z,1.40
2023-03-03T08:16:23.660Z,1.70
2023-03-03T08:18:54.437Z,1.95
2023-03-03T08:21:27.096Z,1.42
2023-03-03T08:23:55.625Z,1.70
2023-03-03T08:26:25.433Z,1.95
2023-03-03T08:28:54.504Z,2.08
2023-03-03T08:31:39.740Z,1.63
2023-03-03T08:34:09.248Z,1.73
2023-03-03T08:36:38.631Z,2.00
2023-03-03T08:41:34.826Z,1.75
2023-03-03T08:46:31.563Z,1.42
2023-03-03T08:48:59.971Z,1.52
2023-03-03T08:51:28.280Z,2.08
2023-03-03T08:53:56.682Z,1.73
2023-03-03T08:59:02.088Z,1.40
2023-03-03T09:01:33.009Z,1.77
2023-03-03T09:04:01.730Z,1.85
2023-03-03T09:06:30.482Z,1.95
2023-03-03T09:08:58.684Z,1.92
2023-03-03T09:11:30.059Z,1.52
2023-03-03T09:14:12.428Z,1.92
2023-03-03T09:16:48.293Z,1.77
2023-03-03T09:19:19.547Z,1.35
2023-03-03T09:21:47.938Z,1.70
2023-03-03T09:24:28.208Z,1.73
2023-03-03T09:26:59.510Z,1.98
2023-03-03T09:29:38.862Z,1.67
2023-03-03T09:32:35.870Z,1.58
2023-03-03T09:35:36.514Z,1.70
2023-03-03T09:38:34.031Z,1.48
2023-03-03T09:41:38.796Z,2.22
2023-03-03T09:44:31.394Z,1.27
2023-03-03T09:47:26.660Z,1.60
2023-03-03T09:50:28.936Z,1.60
2023-03-03T09:53:25.140Z,1.88
2023-03-03T09:56:16.420Z,1.58
2023-03-03T09:58:47.487Z,1.65
2023-03-03T10:01:42.064Z,1.60
2023-03-03T10:04:19.961Z,1.63
2023-03-03T10:07:12.896Z,1.52
2023-03-03T10:09:44.175Z,1.92
2023-03-03T10:12:17.995Z,1.30
2023-03-03T10:15:02.971Z,1.90
2023-03-03T10:17:55.040Z,2.05
2023-03-03T10:20:50.655Z,1.35
2023-03-03T10:23:42.982Z,1.98
2023-03-03T10:26:38.164Z,1.38
2023-03-03T10:29:41.341Z,1.52
2023-03-03T10:32:27.781Z,1.60
2023-03-03T10:35:17.448Z,1.63
2023-03-03T10:38:09.197Z,1.70
2023-03-03T10:40:55.819Z,1.38
2023-03-03T10:43:36.206Z,1.60
2023-03-03T10:46:21.953Z,1.90
2023-03-03T10:49:17.847Z,1.30
2023-03-03T10:52:04.471Z,1.77
2023-03-03T10:54:51.181Z,1.30
2023-03-03T10:57:50.142Z,1.42
2023-03-03T11:13:53.670Z,1.80
2023-03-03T11:16:46.927Z,1.58
2023-03-03T11:19:36.933Z,1.88
2023-03-03T11:22:32.882Z,1.45
2023-03-03T11:25:12.171Z,1.65
2023-03-03T11:28:04.914Z,1.60
2023-03-03T11:30:54.762Z,1.30
2023-03-03T11:33:58.137Z,1.40
2023-03-03T11:36:43.594Z,1.58
2023-03-03T11:39:18.712Z,1.52
2023-03-03T11:42:14.703Z,1.45
2023-03-03T11:44:47.643Z,1.65
2023-03-03T11:47:33.378Z,1.30
2023-03-03T11:50:15.991Z,1.30
2023-03-03T11:53:01.389Z,1.88
2023-03-03T11:55:42.326Z,1.73
2023-03-03T11:58:35.054Z,2.28
2023-03-03T12:01:23.181Z,1.73
2023-03-03T12:07:18.508Z,1.13
2023-03-03T12:09:58.879Z,1.58
2023-03-03T12:12:47.826Z,1.85
2023-03-03T12:15:20.803Z,1.27
2023-03-03T12:18:24.926Z,2.03
2023-03-03T12:21:41.297Z,1.55
2023-03-03T12:24:31.882Z,1.40
2023-03-03T12:27:03.370Z,1.83
2023-03-03T12:29:54.335Z,1.52
2023-03-03T12:32:44.336Z,1.13
2023-03-03T12:35:19.183Z,1.73
2023-03-03T12:37:53.516Z,1.85
2023-03-03T12:40:35.353Z,1.50
2023-03-03T12:43:31.208Z,1.88
2023-03-03T12:46:28.545Z,1.70
2023-03-03T12:48:57.356Z,1.80
2023-03-03T12:52:01.989Z,1.98
2023-03-03T12:54:51.806Z,1.90
2023-03-03T12:57:26.125Z,1.88
2023-03-03T13:00:06.485Z,1.65
2023-03-03T13:02:44.072Z,2.05
2023-03-03T13:05:30.793Z,2.58
2023-03-03T13:08:33.110Z,1.85
2023-03-03T13:11:24.221Z,1.80
2023-03-03T13:14:08.778Z,2.72
2023-03-03T13:16:44.718Z,2.53
2023-03-03T13:19:21.699Z,2.30
2023-03-03T13:21:54.171Z,1.92
2023-03-03T13:24:29.318Z,2.50
2023-03-03T13:27:17.769Z,2.97
2023-03-03T13:30:17.097Z,2.42
2023-03-03T13:32:55.614Z,2.35
2023-03-03T13:35:43.337Z,2.92
2023-03-03T13:38:16.792Z,2.78
2023-03-03T13:41:06.752Z,2.28
2023-03-03T13:44:02.672Z,2.70
2023-03-03T13:47:12.016Z,3.10
2023-03-03T13:49:47.674Z,2.75
2023-03-03T13:52:30.671Z,3.10
2023-03-03T13:55:09.647Z,2.88
2023-03-03T13:57:46.505Z,3.17
2023-03-03T14:00:27.705Z,2.70
2023-03-03T14:03:09.952Z,3.55
2023-03-03T14:05:47.581Z,2.50
2023-03-03T14:08:50.124Z,2.33
2023-03-03T14:11:40.947Z,2.42
2023-03-03T14:14:29.045Z,2.30
2023-03-03T14:20:12.554Z,2.72
2023-03-03T14:22:55.255Z,2.30
2023-03-03T14:25:23.971Z,2.38
2023-03-03T14:28:03.059Z,3.33
2023-03-03T14:30:42.628Z,2.30
2023-03-03T14:33:10.969Z,3.88
2023-03-03T14:38:33.763Z,2.70
2023-03-03T14:41:17.491Z,3.78
2023-03-03T14:44:26.113Z,3.17
2023-03-03T14:47:17.277Z,3.40
2023-03-03T14:49:45.928Z,2.80
2023-03-03T14:52:17.151Z,3.65
2023-03-03T14:54:48.028Z,3.30
2023-03-03T14:57:20.797Z,2.90
2023-03-03T15:00:03.595Z,3.42
2023-03-03T15:02:53.329Z,2.53
2023-03-03T15:05:24.520Z,2.85
2023-03-03T15:07:58.202Z,2.88
2023-03-03T15:10:35.908Z,3.22
2023-03-03T15:13:20.372Z,3.63
2023-03-03T15:16:01.061Z,3.00
2023-03-03T15:18:33.968Z,3.35
2023-03-03T15:21:13.227Z,3.28
2023-03-03T15:23:59.063Z,2.83
2023-03-03T15:26:30.559Z,2.47
2023-03-03T15:29:17.306Z,3.33
2023-03-03T15:31:48.740Z,2.83
2023-03-03T15:34:30.896Z,3.30
2023-03-03T15:37:08.503Z,2.63
2023-03-03T15:40:08.638Z,3.00
2023-03-03T15:43:04.353Z,3.17
2023-03-03T15:45:43.324Z,3.60
2023-03-03T15:48:27.048Z,3.85
2023-03-03T15:51:12.297Z,2.97
2023-03-03T15:54:05.842Z,2.38
2023-03-03T15:56:40.477Z,3.08
2023-03-03T15:59:46.093Z,2.83
2023-03-03T16:02:21.930Z,3.30
2023-03-03T16:05:18.086Z,3.17
2023-03-03T16:07:58.857Z,2.97
2023-03-03T16:10:45.842Z,3.08
2023-03-03T16:13:44.944Z,3.10
2023-03-03T16:16:26.715Z,2.50
2023-03-03T16:19:06.449Z,3.55
2023-03-03T16:22:15.764Z,2.85
2023-03-03T16:25:08.097Z,3.08
2023-03-03T16:27:58.063Z,2.88
2023-03-03T16:30:34.079Z,3.05
2023-03-03T16:33:18.818Z,2.75
2023-03-03T16:36:03.249Z,2.03
2023-03-03T16:38:42.532Z,2.60
2023-03-03T16:41:39.687Z,2.88
2023-03-03T16:44:16.627Z,2.78
2023-03-03T16:46:49.052Z,3.03
2023-03-03T16:49:31.497Z,2.70
2023-03-03T16:52:09.240Z,2.30
2023-03-03T16:54:57.833Z,2.22
2023-03-03T16:57:26.226Z,2.80
2023-03-03T17:00:26.780Z,2.60
2023-03-03T17:03:12.786Z,3.03
2023-03-03T17:06:01.247Z,2.83
2023-03-03T17:08:48.155Z,2.47
2023-03-03T17:11:27.438Z,2.95
2023-03-03T17:13:55.869Z,2.55
2023-03-03T17:16:51.491Z,2.72
2023-03-03T17:19:56.428Z,2.72
2023-03-03T17:22:30.798Z,2.20
2023-03-03T17:25:09.287Z,2.50
2023-03-03T17:28:08.075Z,2.65
2023-03-03T17:31:14.008Z,2.60
2023-03-03T17:34:18.953Z,3.03
2023-03-03T17:37:04.190Z,2.97
2023-03-03T17:39:52.601Z,2.63
2023-03-03T17:42:55.868Z,3.25
2023-03-03T17:45:26.456Z,2.22
2023-03-03T17:47:57.890Z,2.65
2023-03-03T17:50:33.316Z,2.42
2023-03-03T17:53:32.543Z,2.83
2023-03-03T17:56:12.304Z,2.47
2023-03-03T17:59:14.791Z,2.75
2023-03-03T18:02:04.061Z,2.25
2023-03-03T18:04:57.111Z,2.55
2023-03-03T18:07:37.540Z,1.88
2023-03-03T18:10:30.494Z,2.45
2023-03-03T18:13:23.494Z,2.30
2023-03-03T18:16:11.526Z,2.13
2023-03-03T18:19:02.023Z,2.42
2023-03-03T18:21:40.388Z,2.38
2023-03-03T18:24:29.403Z,3.17
2023-03-03T18:27:28.378Z,2.60
2023-03-03T18:30:08.913Z,2.40
2023-03-03T18:32:58.954Z,2.50
2023-03-03T18:35:33.545Z,2.60
2023-03-03T18:38:27.175Z,2.33
2023-03-03T18:40:59.132Z,2.30
2023-03-03T18:43:51.556Z,3.40
2023-03-03T18:46:23.119Z,2.97
2023-03-03T18:49:06.002Z,2.85
2023-03-03T18:51:40.548Z,3.00
2023-03-03T18:54:15.393Z,3.25
2023-03-03T18:56:58.973Z,3.92
2023-03-03T18:59:36.279Z,2.60
2023-03-03T19:02:13.829Z,3.03
2023-03-03T19:04:46.663Z,2.97
2023-03-03T19:07:28.183Z,2.63
2023-03-03T19:10:02.788Z,3.42
2023-03-03T19:12:53.906Z,3.63
2023-03-03T19:15:31.400Z,3.38
2023-03-03T19:18:20.568Z,4.05
2023-03-03T19:21:01.201Z,4.25
2023-03-03T19:23:54.399Z,3.95
2023-03-03T19:26:25.652Z,3.63
2023-03-03T19:29:12.999Z,4.05
2023-03-03T19:32:00.193Z,3.58
2023-03-03T19:34:51.875Z,3.53
2023-03-03T19:37:47.348Z,3.42
2023-03-03T19:40:21.999Z,3.95
2023-03-03T19:43:16.339Z,3.80
2023-03-03T19:45:54.123Z,3.95
2023-03-03T19:48:36.133Z,4.10
2023-03-03T19:51:45.442Z,4.32
2023-03-03T19:54:38.921Z,3.35
2023-03-03T19:57:31.168Z,4.00
2023-03-03T20:00:19.352Z,3.83
2023-03-03T20:03:21.420Z,2.97
2023-03-03T20:05:52.697Z,3.30
2023-03-03T20:08:56.533Z,3.70
2023-03-03T20:11:25.169Z,3.63
2023-03-03T20:14:02.303Z,3.03
2023-03-03T20:17:01.462Z,3.72
2023-03-03T20:19:36.462Z,3.78
2023-03-03T20:22:28.789Z,3.33
2023-03-03T20:25:21.420Z,3.60
2023-03-03T20:28:02.389Z,3.65
2023-03-03T20:30:51.185Z,4.05
2023-03-03T20:33:26.610Z,3.60
2023-03-03T20:36:13.155Z,3.95
